Airport View

Enter AWOS ICAO identifier for current METAR.

ex. KFNL

KPEA 201300Z AUTO 12008KT 7SM SCT100 04/02 A3004 RMK AO2 T00370023

20 Nov 2019 12:59

Frequency: 118.875

Phone: 641-628-3459

Other Area AWOS: KOXV - KTNU - KGGI - KOOA

TAF KOTM 201138Z 2012/2112 12007KT P6SM OVC100 FM210000 15012G23KT P6SM OVC100 WS020/17045KT FM210400 17013G26KT 6SM -RA BR OVC040 WS020/19045KT FM210500 17014G27KT 5SM -RA BR OVC015 WS020/19045KT